Time;durP1;ratioP1;P1;durP2;ratioP2;P2;SDS_P1;SDS_P2;PMS_P1;PMS_P2;Temp;Humidity;BMP_temperature;BMP_pressure;BME280_temperature;BME280_humidity;BME280_pressure;Samples;Min_cycle;Max_cycle;Signal;HPM_P1;HPM_P2
2021/01/25 00:01:34;;;;;;;27.90;15.17;;;2.00;99.90;;;;;;5009488;28;20700;-72
2021/01/25 00:04:01;;;;;;;25.37;14.63;;;2.00;99.90;;;;;;5011983;28;20659;-72
2021/01/25 00:06:27;;;;;;;28.73;16.40;;;1.90;99.90;;;;;;5009199;28;20219;-73
2021/01/25 00:08:53;;;;;;;31.03;16.37;;;2.00;99.90;;;;;;5010258;28;20211;-73
2021/01/25 00:11:20;;;;;;;31.33;15.80;;;2.00;99.90;;;;;;5008958;28;20297;-73
2021/01/25 00:13:46;;;;;;;26.97;15.57;;;2.00;99.90;;;;;;5009331;28;20219;-72
2021/01/25 00:16:13;;;;;;;27.23;16.43;;;2.00;99.90;;;;;;5009288;28;20242;-72
2021/01/25 00:18:40;;;;;;;27.43;15.90;;;2.00;99.90;;;;;;5010551;28;20239;-72
2021/01/25 00:21:06;;;;;;;31.37;16.13;;;2.00;99.90;;;;;;5007733;28;20199;-72
2021/01/25 00:23:32;;;;;;;27.00;15.43;;;2.00;99.90;;;;;;5011059;28;20299;-73
2021/01/25 00:25:59;;;;;;;27.67;14.73;;;2.00;99.90;;;;;;5010032;28;20290;-73
2021/01/25 00:28:25;;;;;;;26.67;14.87;;;2.10;99.90;;;;;;5015104;28;20234;-72
2021/01/25 00:30:52;;;;;;;30.20;16.17;;;2.00;99.90;;;;;;5015274;28;20329;-75
2021/01/25 00:33:19;;;;;;;29.43;15.17;;;2.00;99.90;;;;;;5015570;28;20223;-73
2021/01/25 00:35:45;;;;;;;27.27;14.63;;;2.00;99.90;;;;;;5012730;28;20652;-73
2021/01/25 00:38:12;;;;;;;30.27;15.87;;;2.00;99.90;;;;;;5015207;28;20207;-73
2021/01/25 00:40:38;;;;;;;25.70;14.77;;;2.00;99.90;;;;;;5015204;28;20221;-73
2021/01/25 00:43:05;;;;;;;27.87;15.10;;;2.00;99.90;;;;;;5010748;28;20210;-74
2021/01/25 00:45:32;;;;;;;28.33;15.70;;;1.90;99.90;;;;;;5012020;28;20207;-74
2021/01/25 00:47:58;;;;;;;24.10;15.20;;;2.00;99.90;;;;;;5014156;28;20213;-72
2021/01/25 00:50:25;;;;;;;27.90;15.80;;;1.90;99.90;;;;;;5014439;28;20208;-73
2021/01/25 00:52:52;;;;;;;23.27;14.40;;;2.00;99.90;;;;;;5013973;28;20227;-72
2021/01/25 00:55:18;;;;;;;27.63;15.20;;;2.00;99.90;;;;;;5014853;28;20290;-71
2021/01/25 00:57:45;;;;;;;26.80;15.03;;;2.00;99.90;;;;;;5013584;28;20211;-70
2021/01/25 01:00:13;;;;;;;27.13;14.27;;;2.00;99.90;;;;;;5013632;28;20231;-73
2021/01/25 01:02:39;;;;;;;24.37;15.83;;;2.00;99.90;;;;;;5013732;28;20319;-73
2021/01/25 01:05:08;;;;;;;26.83;14.90;;;2.10;99.90;;;;;;5009419;28;20207;-73
2021/01/25 01:07:35;;;;;;;24.63;15.33;;;2.00;99.90;;;;;;5013743;28;20627;-72
2021/01/25 01:10:03;;;;;;;23.20;13.63;;;2.00;99.90;;;;;;5010441;28;20378;-72
2021/01/25 01:12:30;;;;;;;24.03;14.00;;;2.00;99.90;;;;;;5008797;28;20257;-72
2021/01/25 01:14:56;;;;;;;26.83;14.77;;;2.00;99.90;;;;;;5005991;28;20203;-71
2021/01/25 01:17:23;;;;;;;26.13;14.70;;;2.00;99.90;;;;;;5009461;28;20253;-71
2021/01/25 01:19:49;;;;;;;28.63;14.90;;;2.10;99.90;;;;;;5013822;28;20199;-71
2021/01/25 01:22:15;;;;;;;24.13;14.17;;;2.00;99.90;;;;;;5012060;28;20243;-72
2021/01/25 01:24:43;;;;;;;24.73;14.67;;;2.00;99.90;;;;;;5011654;28;20215;-72
2021/01/25 01:27:09;;;;;;;25.13;14.03;;;2.10;99.90;;;;;;5011529;28;20758;-72
2021/01/25 01:29:35;;;;;;;26.17;15.03;;;2.10;99.90;;;;;;5014341;28;20235;-71
2021/01/25 01:32:02;;;;;;;20.37;13.33;;;2.10;99.90;;;;;;5013158;28;20790;-72
2021/01/25 01:34:28;;;;;;;25.40;13.33;;;2.10;99.90;;;;;;5012995;28;20227;-73
2021/01/25 01:36:54;;;;;;;23.33;13.43;;;2.10;99.90;;;;;;5012545;28;20213;-70
2021/01/25 01:39:21;;;;;;;21.07;12.47;;;2.20;99.90;;;;;;5012688;28;20207;-71
2021/01/25 01:41:48;;;;;;;22.33;13.77;;;2.20;99.90;;;;;;5013829;28;20257;-71
2021/01/25 01:44:14;;;;;;;24.30;13.13;;;2.20;99.90;;;;;;5014009;28;20656;-72
2021/01/25 01:46:42;;;;;;;21.37;12.47;;;2.20;99.90;;;;;;5010280;28;20212;-71
2021/01/25 01:49:09;;;;;;;23.37;13.27;;;2.30;99.90;;;;;;5010929;28;20298;-72
2021/01/25 01:51:36;;;;;;;23.63;13.97;;;2.30;99.90;;;;;;5012679;28;20207;-70
2021/01/25 01:54:04;;;;;;;23.43;14.00;;;2.30;99.90;;;;;;5010036;28;20234;-72
2021/01/25 01:56:30;;;;;;;22.97;13.07;;;2.30;99.90;;;;;;5009984;28;20210;-70
2021/01/25 01:58:58;;;;;;;24.93;13.77;;;2.40;99.90;;;;;;5011798;28;20326;-71
2021/01/25 02:01:24;;;;;;;20.97;13.40;;;2.40;99.90;;;;;;5014642;28;20743;-70
2021/01/25 02:03:51;;;;;;;21.77;12.07;;;2.40;99.90;;;;;;5012667;28;20215;-70
2021/01/25 02:06:20;;;;;;;24.37;13.50;;;2.40;99.90;;;;;;5010743;28;20309;-69
2021/01/25 02:08:48;;;;;;;21.10;13.17;;;2.40;99.90;;;;;;5012989;28;20226;-69
2021/01/25 02:11:15;;;;;;;21.10;12.57;;;2.50;99.90;;;;;;5011504;28;20342;-69
2021/01/25 02:13:42;;;;;;;22.77;13.30;;;2.50;99.90;;;;;;5011209;28;20305;-69
2021/01/25 02:16:09;;;;;;;19.50;11.47;;;2.50;99.90;;;;;;5010209;28;20755;-70
2021/01/25 02:18:36;;;;;;;19.43;12.33;;;2.50;99.90;;;;;;5012758;28;20325;-68
2021/01/25 02:21:03;;;;;;;20.03;12.60;;;2.50;99.90;;;;;;5013189;28;20656;-69
2021/01/25 02:24:03;;;;;;;22.63;12.97;;;2.50;99.90;;;;;;5013317;28;20199;-70
2021/01/25 02:26:42;;;;;;;19.80;11.80;;;2.60;99.90;;;;;;5008521;28;20260;-71
2021/01/25 02:29:09;;;;;;;20.23;12.37;;;2.60;99.90;;;;;;5013989;28;20213;-70
2021/01/25 02:31:37;;;;;;;20.73;12.70;;;2.60;99.90;;;;;;5007888;28;20207;-69
2021/01/25 02:34:04;;;;;;;20.47;12.60;;;2.60;99.90;;;;;;5012423;28;20223;-69
2021/01/25 02:36:32;;;;;;;20.37;12.57;;;2.60;99.90;;;;;;5011505;28;20230;-69
2021/01/25 02:39:02;;;;;;;23.87;13.27;;;2.70;99.90;;;;;;5007217;28;20298;-70
2021/01/25 02:41:30;;;;;;;22.13;13.00;;;2.70;99.90;;;;;;5005660;28;20207;-70
2021/01/25 02:43:58;;;;;;;20.77;11.97;;;2.70;99.90;;;;;;5011139;28;20200;-71
2021/01/25 02:46:27;;;;;;;20.97;12.23;;;2.70;99.90;;;;;;5011355;28;20242;-69
2021/01/25 02:48:55;;;;;;;19.97;12.40;;;2.70;99.90;;;;;;5012466;28;20204;-70
2021/01/25 02:51:22;;;;;;;25.03;13.57;;;2.80;99.90;;;;;;5009881;28;20306;-68
2021/01/25 02:53:48;;;;;;;19.17;11.40;;;2.70;99.90;;;;;;5010874;28;20228;-69
2021/01/25 02:56:15;;;;;;;24.13;12.60;;;2.70;99.90;;;;;;5009850;28;20329;-69
2021/01/25 02:58:42;;;;;;;21.90;12.63;;;2.70;99.90;;;;;;5009842;28;20222;-70
2021/01/25 03:01:09;;;;;;;20.37;11.50;;;2.70;99.90;;;;;;5010238;28;20298;-70
2021/01/25 03:03:37;;;;;;;20.80;12.73;;;2.70;99.90;;;;;;5011762;28;20294;-70
2021/01/25 03:06:04;;;;;;;21.20;12.03;;;2.70;99.90;;;;;;5009567;28;20199;-70
2021/01/25 03:08:30;;;;;;;22.10;12.47;;;2.70;99.90;;;;;;5010061;28;20669;-69
2021/01/25 03:10:57;;;;;;;18.97;12.37;;;2.80;99.90;;;;;;5012147;28;20211;-70
2021/01/25 03:13:27;;;;;;;22.20;12.63;;;2.80;99.90;;;;;;5011897;28;20219;-70
2021/01/25 03:15:55;;;;;;;23.23;12.70;;;2.80;99.90;;;;;;5010223;28;20227;-69
2021/01/25 03:18:22;;;;;;;18.83;11.77;;;2.80;99.90;;;;;;5010166;28;20284;-69
2021/01/25 03:20:49;;;;;;;20.10;12.73;;;2.80;99.90;;;;;;5010217;28;20715;-69
2021/01/25 03:23:16;;;;;;;21.67;12.43;;;2.80;99.90;;;;;;5012462;28;20199;-70
2021/01/25 03:25:42;;;;;;;19.17;12.30;;;2.80;99.90;;;;;;5011770;28;20222;-70
2021/01/25 03:28:09;;;;;;;19.47;12.23;;;2.80;99.90;;;;;;5012159;28;20322;-70
2021/01/25 03:30:35;;;;;;;16.43;11.37;;;2.80;99.90;;;;;;5012625;28;20260;-70
2021/01/25 03:33:02;;;;;;;20.63;11.90;;;2.80;99.90;;;;;;5011709;28;20227;-68
2021/01/25 03:35:28;;;;;;;20.37;12.20;;;2.80;99.90;;;;;;5009348;28;20246;-69
2021/01/25 03:37:56;;;;;;;21.70;12.37;;;2.80;99.90;;;;;;5006682;28;20294;-71
2021/01/25 03:40:22;;;;;;;21.50;11.83;;;2.90;99.90;;;;;;5011954;28;20218;-71
2021/01/25 03:42:48;;;;;;;21.37;12.00;;;2.90;99.90;;;;;;5007281;28;20207;-70
2021/01/25 03:45:15;;;;;;;23.27;11.93;;;2.90;99.90;;;;;;5009629;28;20214;-69
2021/01/25 03:47:41;;;;;;;20.07;12.07;;;2.90;99.90;;;;;;5012271;28;20207;-70
2021/01/25 03:50:09;;;;;;;21.67;12.83;;;2.90;99.90;;;;;;5009715;28;20229;-71
2021/01/25 03:52:35;;;;;;;19.53;11.33;;;2.90;99.90;;;;;;5012366;28;20211;-70
2021/01/25 03:55:03;;;;;;;18.90;12.37;;;2.90;99.90;;;;;;5012058;28;20208;-70
2021/01/25 03:57:29;;;;;;;19.80;11.37;;;2.90;99.90;;;;;;5007440;28;20204;-71
2021/01/25 03:59:56;;;;;;;19.50;11.33;;;2.90;99.90;;;;;;5011812;28;21659;-69
2021/01/25 04:02:22;;;;;;;19.93;11.53;;;3.00;99.90;;;;;;5009200;28;20331;-70
2021/01/25 04:04:49;;;;;;;19.93;11.93;;;3.00;99.90;;;;;;5011957;28;20294;-70
2021/01/25 04:07:15;;;;;;;20.80;12.37;;;3.00;99.90;;;;;;5007326;28;20221;-71
2021/01/25 04:09:41;;;;;;;19.87;12.23;;;3.00;99.90;;;;;;5010656;28;20211;-70
2021/01/25 04:12:09;;;;;;;18.30;11.37;;;3.00;99.90;;;;;;5009816;28;20556;-69
2021/01/25 04:14:36;;;;;;;21.10;11.93;;;3.10;99.90;;;;;;5011571;28;20231;-69
2021/01/25 04:17:03;;;;;;;21.83;12.90;;;3.00;99.90;;;;;;5010180;28;20429;-70
2021/01/25 04:19:29;;;;;;;19.00;11.73;;;3.00;99.90;;;;;;5006438;28;20246;-70
2021/01/25 04:21:55;;;;;;;19.90;11.40;;;3.00;99.90;;;;;;5011589;28;20211;-69
2021/01/25 04:24:22;;;;;;;17.50;11.20;;;3.00;99.90;;;;;;5012037;28;20675;-70
2021/01/25 04:26:48;;;;;;;19.50;12.03;;;3.00;99.90;;;;;;5008537;28;20203;-71
2021/01/25 04:29:15;;;;;;;16.70;10.43;;;3.00;99.90;;;;;;5012305;28;20233;-71
2021/01/25 04:31:42;;;;;;;20.37;12.10;;;3.00;99.90;;;;;;5009043;28;20207;-71
2021/01/25 04:34:08;;;;;;;20.07;11.50;;;3.00;99.90;;;;;;5010759;28;20229;-70
2021/01/25 04:36:34;;;;;;;20.73;11.87;;;3.00;99.90;;;;;;5006550;28;20731;-70
2021/01/25 04:39:01;;;;;;;18.13;11.67;;;3.00;99.90;;;;;;5008845;28;20314;-70
2021/01/25 04:41:28;;;;;;;19.80;11.57;;;3.10;99.90;;;;;;5011406;28;20215;-69
2021/01/25 04:43:55;;;;;;;20.13;12.23;;;3.10;99.90;;;;;;5009409;28;20704;-72
2021/01/25 04:46:24;;;;;;;18.87;11.60;;;3.10;99.90;;;;;;5008887;28;20266;-70
2021/01/25 04:48:51;;;;;;;20.03;12.73;;;3.10;99.90;;;;;;5006921;28;20545;-69
2021/01/25 04:51:18;;;;;;;19.23;12.30;;;3.10;99.90;;;;;;5009945;28;20248;-70
2021/01/25 04:53:45;;;;;;;20.17;12.07;;;3.10;99.90;;;;;;5010985;28;20228;-70
2021/01/25 04:56:13;;;;;;;18.87;11.73;;;3.00;99.90;;;;;;5009929;28;20212;-69
2021/01/25 04:58:39;;;;;;;20.07;12.13;;;3.00;99.90;;;;;;5010755;28;20714;-70
2021/01/25 05:01:06;;;;;;;18.17;12.20;;;3.00;99.90;;;;;;5008692;28;20631;-71
2021/01/25 05:03:33;;;;;;;19.83;11.93;;;3.10;99.90;;;;;;5012062;28;20206;-69
2021/01/25 05:06:01;;;;;;;18.97;12.07;;;3.00;99.90;;;;;;5007631;28;20290;-71
2021/01/25 05:08:27;;;;;;;18.53;12.00;;;3.00;99.90;;;;;;5010247;28;20212;-70
2021/01/25 05:10:54;;;;;;;23.67;12.47;;;3.00;99.90;;;;;;5008855;28;20220;-70
2021/01/25 05:13:22;;;;;;;19.27;11.47;;;3.00;99.90;;;;;;5012850;28;20309;-70
2021/01/25 05:15:51;;;;;;;19.70;12.43;;;3.00;99.90;;;;;;5014736;28;20211;-71
2021/01/25 05:18:21;;;;;;;22.13;12.43;;;3.00;99.90;;;;;;5014602;28;20691;-70
2021/01/25 05:20:53;;;;;;;21.53;12.60;;;3.10;99.90;;;;;;5014365;28;20203;-70
2021/01/25 05:23:20;;;;;;;21.30;12.30;;;3.10;99.90;;;;;;5014507;28;20211;-70
2021/01/25 05:25:47;;;;;;;17.83;11.73;;;3.10;99.90;;;;;;5013964;28;20671;-71
2021/01/25 05:28:15;;;;;;;21.47;12.73;;;3.10;99.90;;;;;;5013295;28;20211;-70
2021/01/25 05:30:42;;;;;;;18.90;12.33;;;3.10;99.90;;;;;;5014918;28;20211;-70
2021/01/25 05:33:08;;;;;;;19.27;12.13;;;3.10;99.90;;;;;;5010288;28;20687;-70
2021/01/25 05:35:35;;;;;;;20.80;12.63;;;3.10;99.90;;;;;;5014671;28;20223;-70
2021/01/25 05:38:04;;;;;;;20.80;12.50;;;3.10;99.90;;;;;;5010279;28;20643;-70
2021/01/25 05:40:31;;;;;;;21.40;12.50;;;3.10;99.90;;;;;;5014493;28;20285;-70
2021/01/25 05:42:58;;;;;;;22.13;12.13;;;3.10;99.90;;;;;;5014344;28;20199;-69
2021/01/25 05:45:27;;;;;;;19.53;11.97;;;3.20;99.90;;;;;;5013314;28;20303;-70
2021/01/25 05:47:56;;;;;;;22.27;13.17;;;3.20;99.90;;;;;;5009759;28;20675;-70
2021/01/25 05:50:31;;;;;;;19.40;13.13;;;3.20;99.90;;;;;;5011617;28;20642;-70
2021/01/25 05:52:59;;;;;;;19.57;12.23;;;3.20;99.90;;;;;;5013830;28;20226;-69
2021/01/25 05:55:27;;;;;;;20.50;12.37;;;3.20;99.90;;;;;;5013085;28;20211;-69
2021/01/25 05:57:53;;;;;;;18.40;12.03;;;3.10;99.90;;;;;;5013537;28;20346;-70
2021/01/25 06:00:21;;;;;;;19.87;12.67;;;3.20;99.90;;;;;;5011812;28;20208;-70
2021/01/25 06:02:49;;;;;;;21.83;13.33;;;3.10;99.90;;;;;;5011098;28;20306;-70
2021/01/25 06:05:26;;;;;;;17.83;11.57;;;3.00;99.90;;;;;;5012473;28;20668;-69
2021/01/25 06:08:02;;;;;;;25.23;13.33;;;3.10;99.90;;;;;;5011575;28;20543;-69
2021/01/25 06:10:38;;;;;;;23.83;13.53;;;3.10;99.90;;;;;;5011897;28;20211;-69
2021/01/25 06:13:13;;;;;;;23.33;13.27;;;3.10;99.90;;;;;;5014236;28;20269;-70
2021/01/25 06:15:41;;;;;;;20.87;13.07;;;3.10;99.90;;;;;;5013843;28;20210;-70
2021/01/25 06:18:07;;;;;;;21.87;12.57;;;3.10;99.90;;;;;;5011575;28;20235;-70
2021/01/25 06:20:36;;;;;;;20.50;13.07;;;3.20;99.90;;;;;;5012369;28;20299;-69
2021/01/25 06:23:03;;;;;;;22.13;13.30;;;3.20;99.90;;;;;;5013719;28;20218;-70
2021/01/25 06:25:32;;;;;;;20.10;13.40;;;3.10;99.90;;;;;;5012840;28;20298;-68
2021/01/25 06:28:01;;;;;;;22.57;13.90;;;3.20;99.90;;;;;;5011975;28;20208;-70
2021/01/25 06:30:31;;;;;;;23.53;13.23;;;3.20;99.90;;;;;;5011255;28;20215;-70
2021/01/25 06:32:58;;;;;;;22.17;12.97;;;3.20;99.90;;;;;;5013218;28;20233;-69
2021/01/25 06:35:29;;;;;;;21.67;12.17;;;3.20;99.90;;;;;;5013349;28;20274;-70
2021/01/25 06:37:58;;;;;;;21.00;13.50;;;3.20;99.90;;;;;;5010052;28;20239;-69
2021/01/25 06:40:26;;;;;;;23.97;13.63;;;3.20;99.90;;;;;;5010156;28;20222;-69
2021/01/25 06:42:55;;;;;;;20.27;12.27;;;3.20;99.90;;;;;;5012868;28;20203;-70
2021/01/25 06:45:25;;;;;;;21.47;13.67;;;3.20;99.90;;;;;;5013383;28;20204;-70
2021/01/25 06:47:58;;;;;;;21.67;12.77;;;3.30;99.90;;;;;;4991466;28;20574;-70
2021/01/25 06:50:26;;;;;;;22.80;13.23;;;3.30;99.90;;;;;;5013386;28;20290;-70
2021/01/25 06:52:53;;;;;;;21.37;13.77;;;3.30;99.90;;;;;;5009555;28;20569;-69
2021/01/25 06:55:20;;;;;;;24.17;13.30;;;3.30;99.90;;;;;;5013173;28;20299;-69
2021/01/25 06:57:47;;;;;;;19.83;13.07;;;3.30;99.90;;;;;;5013149;28;20655;-70
2021/01/25 07:00:21;;;;;;;24.83;13.33;;;3.30;99.90;;;;;;5004796;28;20258;-69
2021/01/25 07:02:52;;;;;;;20.97;13.30;;;3.20;99.90;;;;;;5007141;28;20235;-69
2021/01/25 07:05:22;;;;;;;24.20;13.77;;;3.20;99.90;;;;;;5007124;28;20207;-69
2021/01/25 07:07:48;;;;;;;23.67;13.77;;;3.20;99.90;;;;;;5008421;28;20211;-70
2021/01/25 07:10:16;;;;;;;22.60;13.63;;;3.30;99.90;;;;;;5009498;28;20664;-70
2021/01/25 07:12:44;;;;;;;20.13;12.37;;;3.30;99.90;;;;;;5004848;28;20212;-72
2021/01/25 07:15:12;;;;;;;23.63;12.80;;;3.30;99.90;;;;;;5005127;28;20207;-71
2021/01/25 07:17:39;;;;;;;22.87;13.20;;;3.30;99.90;;;;;;5005262;28;20247;-71
2021/01/25 07:20:07;;;;;;;20.70;12.90;;;3.30;99.90;;;;;;5003910;28;20330;-71
2021/01/25 07:22:36;;;;;;;24.10;13.40;;;3.30;99.90;;;;;;5012192;28;20577;-71
2021/01/25 07:25:04;;;;;;;21.10;13.03;;;3.30;99.90;;;;;;5006562;28;20262;-71
2021/01/25 07:27:35;;;;;;;25.67;14.90;;;3.30;99.90;;;;;;5004137;28;20215;-73
2021/01/25 07:30:02;;;;;;;22.83;13.53;;;3.30;99.90;;;;;;5011307;28;20293;-73
2021/01/25 07:32:28;;;;;;;22.93;13.90;;;3.20;99.90;;;;;;5007399;28;20214;-69
2021/01/25 07:34:57;;;;;;;22.73;14.50;;;3.30;99.90;;;;;;5008754;28;20322;-71
2021/01/25 07:37:23;;;;;;;20.60;12.93;;;3.30;99.90;;;;;;5008902;28;20222;-72
2021/01/25 07:39:50;;;;;;;20.83;12.63;;;3.30;99.90;;;;;;5013411;28;20298;-69
2021/01/25 07:42:16;;;;;;;20.43;12.10;;;3.30;99.90;;;;;;5013383;28;20294;-70
2021/01/25 07:44:44;;;;;;;20.40;12.03;;;3.30;99.90;;;;;;5011973;28;20752;-70
2021/01/25 07:47:10;;;;;;;20.27;12.27;;;3.30;99.90;;;;;;5004169;28;20655;-71
2021/01/25 07:49:37;;;;;;;19.43;12.27;;;3.30;99.90;;;;;;5013452;28;20235;-72
2021/01/25 07:52:15;;;;;;;22.17;12.43;;;3.30;99.90;;;;;;5013524;28;20615;-70
2021/01/25 07:54:42;;;;;;;18.67;11.77;;;3.30;99.90;;;;;;5007283;28;20592;-69
2021/01/25 07:57:21;;;;;;;20.07;11.60;;;3.30;99.90;;;;;;5010485;28;20212;-69
2021/01/25 07:59:48;;;;;;;20.97;12.10;;;3.30;99.90;;;;;;5000903;28;20251;-71
2021/01/25 08:02:15;;;;;;;20.20;12.00;;;3.30;99.90;;;;;;5013234;28;20215;-70
2021/01/25 08:04:44;;;;;;;17.73;11.37;;;3.30;99.90;;;;;;5012801;28;20215;-70
2021/01/25 08:07:14;;;;;;;17.37;11.10;;;3.30;99.90;;;;;;5001734;28;20255;-70
2021/01/25 08:09:43;;;;;;;19.67;11.50;;;3.30;99.90;;;;;;5008072;28;20233;-70
2021/01/25 08:12:10;;;;;;;20.83;11.43;;;3.30;99.90;;;;;;5013395;28;20325;-72
2021/01/25 08:14:40;;;;;;;18.00;11.53;;;3.30;99.90;;;;;;5014209;28;20309;-71
2021/01/25 08:17:09;;;;;;;17.73;11.30;;;3.30;99.90;;;;;;5004032;28;20220;-70
2021/01/25 08:19:43;;;;;;;17.00;10.90;;;3.30;99.90;;;;;;5012791;28;20211;-71
2021/01/25 08:22:13;;;;;;;18.90;11.20;;;3.30;99.90;;;;;;5008688;28;20203;-70
2021/01/25 08:24:39;;;;;;;20.23;12.17;;;3.40;99.90;;;;;;5006256;28;20295;-74
2021/01/25 08:27:09;;;;;;;20.50;13.07;;;3.30;99.90;;;;;;5012000;28;20286;-73
2021/01/25 08:29:37;;;;;;;18.53;12.43;;;3.40;99.90;;;;;;5013156;28;20640;-77
2021/01/25 08:32:12;;;;;;;23.07;12.17;;;3.30;99.90;;;;;;5014332;28;20264;-72
2021/01/25 08:34:39;;;;;;;18.83;12.57;;;3.40;99.90;;;;;;5008306;28;20761;-74
2021/01/25 08:37:08;;;;;;;21.17;11.97;;;3.40;99.90;;;;;;5004971;28;20253;-73
2021/01/25 08:39:39;;;;;;;19.50;11.17;;;3.40;99.90;;;;;;5012591;28;20207;-73
2021/01/25 08:42:15;;;;;;;19.57;11.40;;;3.40;99.90;;;;;;4999903;28;20578;-73
2021/01/25 08:44:49;;;;;;;20.30;12.17;;;3.40;99.90;;;;;;5001665;28;20274;-71
2021/01/25 08:47:18;;;;;;;18.97;11.43;;;3.40;99.90;;;;;;5012717;28;20207;-73
2021/01/25 08:49:45;;;;;;;20.77;11.80;;;3.40;99.90;;;;;;5016595;28;20227;-73
2021/01/25 08:52:24;;;;;;;20.50;11.13;;;3.40;99.90;;;;;;5015289;28;20214;-72
2021/01/25 08:54:51;;;;;;;21.17;11.90;;;3.40;99.90;;;;;;4995445;28;20281;-72
2021/01/25 08:57:20;;;;;;;19.00;11.03;;;3.40;99.90;;;;;;5009902;28;20357;-72
2021/01/25 08:59:48;;;;;;;17.00;10.67;;;3.50;99.90;;;;;;5005113;28;20210;-74
2021/01/25 09:02:22;;;;;;;17.93;10.93;;;3.50;99.90;;;;;;5017014;28;20668;-72
2021/01/25 09:04:51;;;;;;;17.30;11.53;;;3.50;99.90;;;;;;5004253;28;20229;-75
2021/01/25 09:07:23;;;;;;;17.73;10.83;;;3.40;99.90;;;;;;5017155;28;20631;-74
2021/01/25 09:09:50;;;;;;;16.50;10.23;;;3.40;99.90;;;;;;5017263;28;20226;-73
2021/01/25 09:12:18;;;;;;;16.67;9.93;;;3.40;99.90;;;;;;5017268;28;20234;-74
2021/01/25 09:14:45;;;;;;;14.03;9.93;;;3.40;99.90;;;;;;5015016;28;20223;-73
2021/01/25 09:17:13;;;;;;;17.40;10.20;;;3.40;99.90;;;;;;5013026;28;20329;-73
2021/01/25 09:19:41;;;;;;;18.77;10.80;;;3.40;99.90;;;;;;5017113;28;20250;-73
2021/01/25 09:22:13;;;;;;;16.53;10.40;;;3.40;99.90;;;;;;5012243;28;20226;-73
2021/01/25 09:24:41;;;;;;;16.50;10.10;;;3.40;99.90;;;;;;5016182;28;20294;-72
2021/01/25 09:27:09;;;;;;;16.87;9.90;;;3.40;99.90;;;;;;5012856;28;20203;-74
2021/01/25 09:29:39;;;;;;;19.20;10.47;;;3.40;99.90;;;;;;5016974;28;20213;-75
2021/01/25 09:32:07;;;;;;;15.60;9.83;;;3.40;99.90;;;;;;5017743;28;20208;-75
2021/01/25 09:34:42;;;;;;;15.60;9.30;;;3.50;99.90;;;;;;5015377;28;20227;-74
2021/01/25 09:37:09;;;;;;;16.03;8.97;;;3.40;99.90;;;;;;5011084;28;20269;-73
2021/01/25 09:39:37;;;;;;;13.60;9.07;;;3.40;99.90;;;;;;5015601;28;20211;-72
2021/01/25 09:42:04;;;;;;;13.37;8.87;;;3.40;99.90;;;;;;5016037;28;20230;-75
2021/01/25 09:44:30;;;;;;;12.50;8.93;;;3.30;99.90;;;;;;5014167;28;20207;-72
2021/01/25 09:46:57;;;;;;;15.07;8.83;;;3.30;99.90;;;;;;5010220;28;20649;-73
2021/01/25 09:49:23;;;;;;;14.60;9.67;;;3.30;99.90;;;;;;5015832;28;20204;-74
2021/01/25 09:51:51;;;;;;;16.80;10.07;;;2.90;99.90;;;;;;5013617;28;20683;-76
2021/01/25 09:54:17;;;;;;;15.67;10.23;;;3.30;99.90;;;;;;5006047;28;20561;-71
2021/01/25 09:56:44;;;;;;;14.60;9.73;;;3.30;99.90;;;;;;5012545;28;20361;-74
2021/01/25 09:59:10;;;;;;;17.33;10.47;;;3.30;99.90;;;;;;5011064;28;20211;-71
2021/01/25 10:01:37;;;;;;;15.77;9.17;;;3.30;99.90;;;;;;5008362;28;20233;-74
2021/01/25 10:04:04;;;;;;;14.60;9.83;;;3.30;99.90;;;;;;5015332;28;20209;-72
2021/01/25 10:06:30;;;;;;;16.73;10.77;;;3.20;99.90;;;;;;5015842;28;20695;-73
2021/01/25 10:08:58;;;;;;;13.47;9.80;;;3.20;99.90;;;;;;5012536;28;20204;-73
2021/01/25 10:11:26;;;;;;;14.53;9.50;;;3.20;99.90;;;;;;5013762;28;20215;-74
2021/01/25 10:13:53;;;;;;;16.20;10.27;;;3.30;99.90;;;;;;5013042;28;20223;-71
2021/01/25 10:16:21;;;;;;;15.97;10.13;;;3.30;99.90;;;;;;5016322;28;20700;-73
2021/01/25 10:18:48;;;;;;;18.10;10.97;;;3.30;99.90;;;;;;5004472;28;20293;-72
2021/01/25 10:21:17;;;;;;;16.00;9.63;;;3.30;99.90;;;;;;5010716;28;20662;-72
2021/01/25 10:23:45;;;;;;;18.53;11.70;;;3.30;99.90;;;;;;5007154;28;20283;-74
2021/01/25 10:26:12;;;;;;;19.90;11.70;;;3.40;99.90;;;;;;5012075;28;20250;-75
2021/01/25 10:28:39;;;;;;;19.80;11.40;;;3.40;99.90;;;;;;5011476;28;20219;-73
2021/01/25 10:31:08;;;;;;;18.03;10.50;;;3.40;99.90;;;;;;5014717;28;20207;-74
2021/01/25 10:33:36;;;;;;;17.17;10.57;;;3.40;99.90;;;;;;5015561;28;20223;-74
2021/01/25 10:36:03;;;;;;;19.43;10.37;;;3.40;99.90;;;;;;5009045;28;20212;-72
2021/01/25 10:38:30;;;;;;;14.63;10.17;;;3.40;99.90;;;;;;4995541;28;20230;-72
2021/01/25 10:41:00;;;;;;;14.87;9.97;;;3.50;99.90;;;;;;5014172;28;20207;-72
2021/01/25 10:43:27;;;;;;;17.00;10.63;;;3.50;99.90;;;;;;5010374;28;20203;-72
2021/01/25 10:45:54;;;;;;;15.53;10.17;;;3.40;99.90;;;;;;5006651;28;20596;-73
2021/01/25 10:48:31;;;;;;;16.63;9.87;;;3.40;99.90;;;;;;5010809;28;20208;-71
2021/01/25 10:50:59;;;;;;;17.23;10.83;;;3.40;99.90;;;;;;5012711;28;20297;-71
2021/01/25 10:53:25;;;;;;;20.97;11.73;;;3.30;99.90;;;;;;5011198;28;20234;-71
2021/01/25 10:55:52;;;;;;;18.73;11.20;;;3.40;99.90;;;;;;5003787;28;20223;-72
2021/01/25 10:58:18;;;;;;;19.10;11.30;;;3.30;99.90;;;;;;5012856;28;20204;-69
2021/01/25 11:00:45;;;;;;;18.43;11.13;;;3.30;99.90;;;;;;5000839;28;20212;-74
2021/01/25 11:06:34;;;;;;;18.43;11.00;;;3.30;99.90;;;;;;5001422;28;20230;-71
2021/01/25 11:09:01;;;;;;;17.93;10.93;;;3.40;99.90;;;;;;5013454;28;20298;-73
2021/01/25 11:11:29;;;;;;;19.07;10.93;;;3.40;99.90;;;;;;5004347;28;20293;-75
2021/01/25 11:13:56;;;;;;;15.80;10.17;;;3.40;99.90;;;;;;5001295;28;20317;-71
2021/01/25 11:16:23;;;;;;;16.60;10.03;;;3.50;99.90;;;;;;5013018;28;20310;-72
2021/01/25 11:18:50;;;;;;;14.23;9.33;;;3.50;99.90;;;;;;5008711;28;20235;-72
2021/01/25 11:21:16;;;;;;;15.27;9.50;;;3.40;99.90;;;;;;5006527;28;20300;-72
2021/01/25 11:23:42;;;;;;;16.00;9.10;;;3.40;99.90;;;;;;5007304;28;20283;-71
2021/01/25 11:26:10;;;;;;;14.27;8.93;;;3.40;99.90;;;;;;5011752;28;20207;-72
2021/01/25 11:28:36;;;;;;;15.07;8.90;;;3.30;99.90;;;;;;5012777;28;20604;-73
2021/01/25 11:31:04;;;;;;;17.60;9.90;;;3.40;99.90;;;;;;5004787;28;20203;-77
2021/01/25 11:33:31;;;;;;;17.27;9.53;;;3.30;99.90;;;;;;5009972;28;20271;-71
2021/01/25 11:35:58;;;;;;;14.30;9.00;;;3.30;99.90;;;;;;5015047;28;20257;-72
2021/01/25 11:38:24;;;;;;;17.23;10.00;;;3.20;99.90;;;;;;5009950;28;20249;-74
2021/01/25 11:40:51;;;;;;;16.00;10.10;;;3.20;99.90;;;;;;5006757;28;20220;-77
2021/01/25 11:43:18;;;;;;;20.43;10.87;;;3.20;99.90;;;;;;5009162;28;20218;-76
2021/01/25 11:45:44;;;;;;;19.20;10.27;;;3.20;99.90;;;;;;5011926;28;20238;-72
2021/01/25 11:48:11;;;;;;;16.90;10.70;;;3.20;99.90;;;;;;5012508;28;20223;-73
2021/01/25 11:50:38;;;;;;;17.13;11.10;;;3.30;99.90;;;;;;5002907;28;20720;-72
2021/01/25 11:53:06;;;;;;;21.00;11.33;;;3.30;99.90;;;;;;5011582;28;20271;-75
2021/01/25 11:55:33;;;;;;;18.90;11.57;;;3.30;99.90;;;;;;5009716;28;20306;-74
2021/01/25 11:57:59;;;;;;;19.50;11.17;;;3.30;99.90;;;;;;5004563;28;20577;-72
2021/01/25 12:00:26;;;;;;;18.50;10.27;;;3.30;99.90;;;;;;5013488;28;20310;-72
2021/01/25 12:02:53;;;;;;;19.47;11.73;;;3.30;99.90;;;;;;5006706;28;20353;-72
2021/01/25 12:05:20;;;;;;;17.60;11.07;;;3.30;99.90;;;;;;5005631;28;20295;-71
2021/01/25 12:07:47;;;;;;;17.87;11.13;;;3.20;99.90;;;;;;5009418;28;20215;-72
2021/01/25 12:10:13;;;;;;;18.07;11.37;;;3.20;99.90;;;;;;5011655;28;20214;-72
2021/01/25 12:12:40;;;;;;;19.60;11.63;;;3.20;99.90;;;;;;5011637;28;20207;-73
2021/01/25 12:15:08;;;;;;;18.67;11.30;;;3.20;99.90;;;;;;5010094;28;20589;-71
2021/01/25 12:17:35;;;;;;;17.53;11.93;;;3.20;99.90;;;;;;5011902;28;20330;-72
2021/01/25 12:20:01;;;;;;;20.17;12.07;;;3.20;99.90;;;;;;5013061;28;20741;-72
2021/01/25 12:22:28;;;;;;;19.63;11.73;;;3.30;99.90;;;;;;5010436;28;20285;-72
2021/01/25 12:24:55;;;;;;;19.87;11.80;;;3.30;99.90;;;;;;5015033;28;20298;-72
2021/01/25 12:27:22;;;;;;;17.77;11.47;;;3.30;99.90;;;;;;5015424;28;20699;-73
2021/01/25 12:29:48;;;;;;;16.57;11.00;;;3.30;99.90;;;;;;5014732;28;20215;-72
2021/01/25 12:32:16;;;;;;;16.43;10.13;;;3.30;99.90;;;;;;5014549;28;20365;-72
2021/01/25 12:34:43;;;;;;;17.53;11.33;;;3.30;99.90;;;;;;5016523;28;20258;-72
2021/01/25 12:37:09;;;;;;;20.73;11.00;;;3.30;99.90;;;;;;5014254;28;20203;-72
2021/01/25 12:39:37;;;;;;;17.83;10.87;;;3.20;99.90;;;;;;5014157;28;20549;-73
2021/01/25 12:42:04;;;;;;;21.17;12.20;;;3.20;99.90;;;;;;5013358;28;20690;-71
2021/01/25 12:44:31;;;;;;;19.87;11.03;;;3.20;99.90;;;;;;5016687;28;20739;-72